Time;durP1;ratioP1;P1;durP2;ratioP2;P2;SDS_P1;SDS_P2;PMS_P1;PMS_P2;Temp;Humidity;BMP_temperature;BMP_pressure;BME280_temperature;BME280_humidity;BME280_pressure;Samples;Min_cycle;Max_cycle;Signal;HPM_P1;HPM_P2
2023/09/12 00:00:42;;;;;;;9.83;8.20;;;19.40;1.00;;;;;;5055346;28;20401;-80
2023/09/12 00:03:08;;;;;;;8.52;7.65;;;19.40;1.00;;;;;;5067966;28;20410;-80
2023/09/12 00:05:34;;;;;;;8.70;7.90;;;19.50;1.00;;;;;;5074932;28;20851;-80
2023/09/12 00:08:00;;;;;;;9.77;8.00;;;19.50;1.00;;;;;;5075365;28;20406;-80
2023/09/12 00:10:25;;;;;;;8.77;7.63;;;19.50;1.00;;;;;;5075278;28;20380;-80
2023/09/12 00:12:51;;;;;;;8.45;7.65;;;19.40;1.00;;;;;;5064620;28;20891;-80
2023/09/12 00:15:18;;;;;;;9.82;8.00;;;19.50;1.00;;;;;;5074771;28;20406;-79
2023/09/12 00:17:43;;;;;;;8.67;7.97;;;19.40;1.00;;;;;;5075276;28;20392;-80
2023/09/12 00:20:09;;;;;;;9.20;8.30;;;19.40;1.00;;;;;;5071297;28;20393;-79
2023/09/12 00:22:35;;;;;;;9.73;8.00;;;19.40;1.00;;;;;;5055173;28;20753;-80
2023/09/12 00:25:00;;;;;;;8.83;7.93;;;19.40;1.00;;;;;;5071062;28;20407;-79
2023/09/12 00:27:26;;;;;;;9.43;8.43;;;19.40;1.00;;;;;;5054544;28;20416;-79
2023/09/12 00:29:51;;;;;;;8.67;7.87;;;19.40;1.00;;;;;;5054776;28;20415;-79
2023/09/12 00:32:17;;;;;;;8.50;7.80;;;19.30;1.00;;;;;;5076851;28;20463;-79
2023/09/12 00:34:42;;;;;;;8.87;7.90;;;19.30;1.00;;;;;;5078959;28;20418;-79
2023/09/12 00:37:08;;;;;;;9.10;8.30;;;19.30;1.00;;;;;;5079777;28;20384;-80
2023/09/12 00:39:33;;;;;;;9.63;8.63;;;19.30;1.00;;;;;;5059544;28;20397;-80
2023/09/12 00:41:59;;;;;;;9.20;8.40;;;19.30;1.00;;;;;;5058178;28;20729;-81
2023/09/12 00:44:24;;;;;;;8.80;8.00;;;19.30;1.00;;;;;;5054921;28;20388;-80
2023/09/12 00:46:52;;;;;;;8.77;7.87;;;19.20;1.00;;;;;;5066686;28;20867;-80
2023/09/12 00:49:19;;;;;;;8.90;8.00;;;19.20;1.00;;;;;;5074054;28;20380;-80
2023/09/12 00:51:45;;;;;;;8.25;7.45;;;19.20;1.00;;;;;;5074501;28;20372;-80
2023/09/12 00:54:11;;;;;;;9.47;8.47;;;19.10;1.00;;;;;;5056868;28;20390;-80
2023/09/12 00:56:38;;;;;;;9.83;8.17;;;19.20;1.00;;;;;;5064176;28;20480;-80
2023/09/12 00:59:05;;;;;;;8.95;8.15;;;19.10;1.00;;;;;;5054942;28;20389;-79
2023/09/12 01:01:31;;;;;;;8.73;7.85;;;19.10;1.00;;;;;;5062510;28;20369;-80
2023/09/12 01:03:57;;;;;;;8.95;7.95;;;19.10;1.00;;;;;;5085822;28;20426;-80
2023/09/12 01:06:28;;;;;;;9.10;8.40;;;19.20;1.00;;;;;;5096752;28;20411;-80
2023/09/12 01:08:55;;;;;;;8.80;7.90;;;19.10;1.00;;;;;;5097428;28;20396;-79
2023/09/12 01:11:20;;;;;;;9.43;8.63;;;19.20;1.00;;;;;;5066343;28;20529;-79
2023/09/12 01:13:46;;;;;;;8.97;8.07;;;19.20;1.00;;;;;;5055937;28;20418;-79
2023/09/12 01:16:11;;;;;;;8.73;7.93;;;19.30;1.00;;;;;;5054313;28;20384;-79
2023/09/12 01:18:37;;;;;;;9.30;8.02;;;19.30;1.00;;;;;;5049340;28;20393;-79
2023/09/12 01:21:22;;;;;;;8.73;7.93;;;19.30;1.00;;;;;;5037100;28;20472;-79
2023/09/12 01:24:05;;;;;;;8.90;8.10;;;19.40;1.00;;;;;;5053943;28;20428;-79
2023/09/12 01:27:03;;;;;;;9.48;8.60;;;19.40;1.00;;;;;;5035612;28;20414;-80
2023/09/12 01:29:31;;;;;;;8.40;7.70;;;19.30;1.00;;;;;;5054068;28;20425;-80
2023/09/12 01:31:58;;;;;;;8.80;8.00;;;19.30;1.00;;;;;;5054169;28;20750;-80
2023/09/12 01:34:24;;;;;;;8.70;7.90;;;19.40;1.00;;;;;;5035924;28;20400;-80
2023/09/12 01:36:49;;;;;;;8.93;8.03;;;19.40;1.00;;;;;;5035403;28;20385;-79
2023/09/12 01:39:15;;;;;;;8.13;7.30;;;19.40;1.00;;;;;;5035257;28;20788;-79
2023/09/12 01:41:45;;;;;;;9.40;8.43;;;19.30;1.00;;;;;;5072818;28;20475;-80
2023/09/12 01:44:12;;;;;;;8.52;7.63;;;19.40;1.00;;;;;;5073579;28;20818;-79
2023/09/12 01:46:39;;;;;;;8.18;7.43;;;19.50;1.00;;;;;;5073335;28;20399;-79
2023/09/12 01:49:07;;;;;;;10.25;7.97;;;19.40;1.00;;;;;;5073399;28;20439;-79
2023/09/12 01:51:33;;;;;;;10.48;8.68;;;19.40;1.00;;;;;;5072846;28;20387;-80
2023/09/12 01:54:00;;;;;;;9.27;8.38;;;19.30;1.00;;;;;;5074344;28;20885;-79
2023/09/12 01:56:25;;;;;;;9.10;8.20;;;19.30;1.00;;;;;;5074048;28;20492;-80
2023/09/12 01:58:51;;;;;;;8.87;8.07;;;19.30;1.00;;;;;;5055659;28;20421;-79
2023/09/12 02:01:16;;;;;;;10.90;8.40;;;19.30;1.00;;;;;;5059618;28;20408;-79
2023/09/12 02:03:42;;;;;;;10.63;8.70;;;19.30;1.00;;;;;;5053026;28;20752;-79
2023/09/12 02:06:07;;;;;;;8.95;8.15;;;19.30;1.00;;;;;;5052952;28;20927;-80
2023/09/12 02:08:33;;;;;;;9.20;8.30;;;19.20;1.00;;;;;;5055529;28;21090;-79
2023/09/12 02:10:58;;;;;;;8.97;8.27;;;19.40;1.00;;;;;;5072127;28;20391;-79
2023/09/12 02:13:24;;;;;;;9.40;8.50;;;19.30;1.00;;;;;;5054045;28;20384;-80
2023/09/12 02:15:49;;;;;;;9.20;8.40;;;19.40;1.00;;;;;;5072446;28;20383;-79
2023/09/12 02:18:15;;;;;;;9.53;8.63;;;19.40;1.00;;;;;;5053860;28;20395;-79
2023/09/12 02:20:41;;;;;;;9.80;8.90;;;19.50;1.00;;;;;;5033923;28;20404;-79
2023/09/12 02:23:07;;;;;;;9.80;9.00;;;19.50;1.00;;;;;;5052107;28;20698;-80
2023/09/12 02:25:32;;;;;;;9.80;8.90;;;19.50;1.00;;;;;;5034247;28;20420;-80
2023/09/12 02:27:58;;;;;;;9.90;8.90;;;19.50;1.00;;;;;;5034094;28;20427;-79
2023/09/12 02:30:24;;;;;;;9.60;8.80;;;19.50;1.00;;;;;;5051290;28;20468;-80
2023/09/12 02:32:49;;;;;;;9.80;8.80;;;19.50;1.00;;;;;;5051832;28;20385;-79
2023/09/12 02:35:15;;;;;;;9.90;8.90;;;19.10;1.00;;;;;;5051876;28;20385;-80
2023/09/12 02:37:40;;;;;;;9.98;8.98;;;19.60;1.00;;;;;;5051833;28;20389;-79
2023/09/12 02:40:06;;;;;;;9.63;8.70;;;19.50;1.00;;;;;;5066240;28;20478;-79
2023/09/12 02:42:32;;;;;;;9.25;8.35;;;19.40;1.00;;;;;;5041873;28;20397;-79
2023/09/12 02:44:58;;;;;;;9.20;8.30;;;19.40;1.00;;;;;;5064748;28;21091;-79
2023/09/12 02:47:23;;;;;;;9.30;8.50;;;19.40;1.00;;;;;;5060912;28;20401;-81
2023/09/12 02:49:49;;;;;;;9.68;8.88;;;19.30;1.00;;;;;;5050601;28;20462;-80
2023/09/12 02:52:14;;;;;;;9.77;8.87;;;19.30;1.00;;;;;;5072103;28;20391;-80
2023/09/12 02:54:40;;;;;;;9.05;8.25;;;19.20;1.00;;;;;;5072515;28;20383;-80
2023/09/12 02:57:05;;;;;;;10.70;9.70;;;19.10;1.00;;;;;;5053742;28;20750;-80
2023/09/12 02:59:31;;;;;;;9.90;9.00;;;19.10;1.00;;;;;;5056435;28;20419;-80
2023/09/12 03:01:57;;;;;;;9.57;8.77;;;19.10;1.00;;;;;;5051404;28;20871;-80
2023/09/12 03:04:25;;;;;;;9.40;8.60;;;19.20;1.00;;;;;;5051610;28;20409;-80
2023/09/12 03:06:50;;;;;;;9.75;8.75;;;19.20;1.00;;;;;;5051383;28;20429;-80
2023/09/12 03:09:17;;;;;;;9.50;8.60;;;19.30;1.00;;;;;;5063410;28;20406;-80
2023/09/12 03:11:42;;;;;;;10.07;8.97;;;19.30;1.00;;;;;;5051779;28;20377;-80
2023/09/12 03:14:08;;;;;;;9.57;8.77;;;19.20;1.00;;;;;;5033780;28;20424;-80
2023/09/12 03:16:33;;;;;;;10.17;9.27;;;19.10;1.00;;;;;;5051885;28;20414;-80
2023/09/12 03:19:01;;;;;;;9.87;9.07;;;18.90;1.00;;;;;;5033692;28;20394;-79
2023/09/12 03:21:26;;;;;;;9.93;8.93;;;18.90;1.00;;;;;;5056468;28;20492;-79
2023/09/12 03:23:52;;;;;;;10.40;9.40;;;19.00;1.00;;;;;;5043651;28;20427;-79
2023/09/12 03:26:17;;;;;;;10.00;9.20;;;19.00;1.00;;;;;;5071671;28;20400;-79
2023/09/12 03:28:43;;;;;;;10.40;9.40;;;19.00;1.00;;;;;;5070427;28;20391;-79
2023/09/12 03:31:14;;;;;;;9.65;8.65;;;19.00;1.00;;;;;;5070589;28;20429;-79
2023/09/12 03:33:47;;;;;;;10.37;9.37;;;19.10;1.00;;;;;;5046674;28;20425;-79
2023/09/12 03:36:13;;;;;;;9.63;8.82;;;19.00;1.00;;;;;;5068330;28;20395;-79
2023/09/12 03:38:38;;;;;;;9.38;8.57;;;18.90;1.00;;;;;;5071713;28;20398;-79
2023/09/12 03:41:04;;;;;;;9.57;8.67;;;19.00;1.00;;;;;;5053817;28;20379;-79
2023/09/12 03:43:30;;;;;;;10.20;9.20;;;19.00;1.00;;;;;;5072089;28;20380;-80
2023/09/12 03:45:55;;;;;;;9.43;8.63;;;19.00;1.00;;;;;;5058615;28;20409;-79
2023/09/12 03:48:21;;;;;;;9.83;9.03;;;19.00;1.00;;;;;;5052621;28;20389;-79
2023/09/12 03:50:47;;;;;;;10.30;9.40;;;18.90;1.00;;;;;;5034102;28;20754;-80
2023/09/12 03:53:14;;;;;;;10.07;9.07;;;18.90;1.00;;;;;;5062420;28;20491;-80
2023/09/12 03:55:40;;;;;;;9.70;8.90;;;18.90;1.00;;;;;;5072710;28;20394;-79
2023/09/12 03:58:05;;;;;;;9.93;8.93;;;18.80;1.00;;;;;;5054909;28;20763;-79
2023/09/12 04:00:31;;;;;;;10.27;9.37;;;18.80;1.00;;;;;;5072763;28;20395;-79
2023/09/12 04:02:56;;;;;;;10.50;9.50;;;18.80;1.00;;;;;;5047894;28;20393;-79
2023/09/12 04:05:22;;;;;;;10.13;9.03;;;18.80;1.00;;;;;;5034578;28;20407;-80
2023/09/12 04:07:48;;;;;;;10.20;9.20;;;18.70;1.00;;;;;;5034864;28;20394;-79
2023/09/12 04:10:13;;;;;;;9.90;9.10;;;18.70;1.00;;;;;;5034193;28;20421;-80
2023/09/12 04:12:39;;;;;;;10.30;9.40;;;18.70;1.00;;;;;;5059517;28;20441;-79
2023/09/12 04:15:06;;;;;;;10.18;9.27;;;18.70;1.00;;;;;;5076323;28;20419;-79
2023/09/12 04:17:31;;;;;;;10.63;9.25;;;18.80;1.00;;;;;;5079990;28;20395;-79
2023/09/12 04:19:57;;;;;;;10.20;9.33;;;18.70;1.00;;;;;;5078122;28;20388;-78
2023/09/12 04:22:22;;;;;;;10.30;9.40;;;18.80;1.00;;;;;;5063616;28;20417;-79
2023/09/12 04:24:48;;;;;;;10.70;9.70;;;18.80;1.00;;;;;;5080519;28;20388;-80
2023/09/12 04:27:13;;;;;;;10.83;9.70;;;18.80;1.00;;;;;;5080008;28;20399;-79
2023/09/12 04:29:39;;;;;;;9.90;9.10;;;18.80;1.00;;;;;;5080217;28;20391;-79
2023/09/12 04:32:05;;;;;;;10.17;9.10;;;18.80;1.00;;;;;;5042733;28;20401;-79
2023/09/12 04:34:31;;;;;;;10.10;9.20;;;18.80;1.00;;;;;;5058989;28;20456;-79
2023/09/12 04:36:57;;;;;;;10.18;9.18;;;18.70;1.00;;;;;;5057789;28;20435;-79
2023/09/12 04:39:22;;;;;;;10.40;9.50;;;18.70;1.00;;;;;;5056592;28;20472;-79
2023/09/12 04:41:48;;;;;;;10.40;9.45;;;18.80;1.00;;;;;;5074254;28;20387;-79
2023/09/12 04:44:14;;;;;;;10.27;9.27;;;18.80;1.00;;;;;;5064220;28;20399;-79
2023/09/12 04:46:39;;;;;;;10.43;9.33;;;18.80;1.00;;;;;;5064319;28;20414;-79
2023/09/12 04:49:05;;;;;;;10.98;10.07;;;18.80;1.00;;;;;;5081214;28;20413;-79
2023/09/12 04:51:30;;;;;;;10.50;9.50;;;18.80;1.00;;;;;;5081435;28;20912;-79
2023/09/12 04:53:56;;;;;;;10.80;9.90;;;18.80;1.00;;;;;;5073388;28;20956;-79
2023/09/12 04:56:24;;;;;;;11.00;10.00;;;18.70;1.00;;;;;;5057340;28;20382;-80
2023/09/12 04:58:49;;;;;;;10.52;9.63;;;18.60;1.00;;;;;;5059354;28;20417;-80
2023/09/12 05:01:16;;;;;;;11.00;10.00;;;18.70;1.00;;;;;;5035917;28;20416;-80
2023/09/12 05:03:41;;;;;;;10.25;9.30;;;18.70;1.00;;;;;;5054949;28;20400;-80
2023/09/12 05:06:07;;;;;;;10.57;9.67;;;18.60;1.00;;;;;;5036867;28;20401;-80
2023/09/12 05:08:32;;;;;;;10.07;9.20;;;18.60;1.00;;;;;;5054504;28;20927;-80
2023/09/12 05:10:58;;;;;;;10.30;9.40;;;18.60;1.00;;;;;;5055483;28;20389;-80
2023/09/12 05:13:23;;;;;;;11.10;10.00;;;18.60;1.00;;;;;;5037249;28;20385;-80
2023/09/12 05:15:49;;;;;;;10.10;9.30;;;18.50;1.00;;;;;;5057363;28;20381;-79
2023/09/12 05:18:15;;;;;;;9.83;9.03;;;18.50;1.00;;;;;;5054600;28;20765;-79
2023/09/12 05:20:40;;;;;;;10.73;9.68;;;18.60;1.00;;;;;;5037168;28;20394;-80
2023/09/12 05:23:06;;;;;;;11.07;10.00;;;18.70;1.00;;;;;;5054644;28;20763;-80
2023/09/12 05:25:31;;;;;;;10.88;9.88;;;18.70;1.00;;;;;;5056143;28;20750;-80
2023/09/12 05:27:57;;;;;;;11.00;10.10;;;18.80;1.00;;;;;;5058821;28;20457;-80
2023/09/12 05:30:22;;;;;;;10.30;9.40;;;18.80;1.00;;;;;;5039576;28;21014;-80
2023/09/12 05:32:48;;;;;;;11.10;10.00;;;18.80;1.00;;;;;;5038769;28;20464;-81
2023/09/12 05:35:14;;;;;;;11.48;10.10;;;18.80;1.00;;;;;;5056128;28;20385;-80
2023/09/12 05:37:39;;;;;;;11.53;10.10;;;18.80;1.00;;;;;;5057047;28;20386;-81
2023/09/12 05:40:06;;;;;;;10.80;9.80;;;18.80;1.00;;;;;;5077609;28;20387;-80
2023/09/12 05:42:31;;;;;;;10.90;9.80;;;18.90;1.00;;;;;;5068538;28;20368;-78
2023/09/12 05:44:57;;;;;;;11.13;10.13;;;19.00;1.00;;;;;;5095535;28;20430;-79
2023/09/12 05:47:23;;;;;;;10.70;9.70;;;18.90;1.00;;;;;;5061548;28;21208;-79
2023/09/12 05:49:48;;;;;;;11.27;10.27;;;18.90;1.00;;;;;;5041610;28;20377;-80
2023/09/12 05:52:14;;;;;;;11.38;10.27;;;18.80;1.00;;;;;;5037120;28;20381;-79
2023/09/12 05:54:41;;;;;;;10.98;9.98;;;18.90;1.00;;;;;;5066282;28;20392;-79
2023/09/12 05:57:07;;;;;;;10.93;9.90;;;19.00;1.00;;;;;;5055792;28;20453;-79
2023/09/12 05:59:34;;;;;;;14.10;10.70;;;18.90;1.00;;;;;;5055898;28;20391;-79
2023/09/12 06:01:59;;;;;;;11.80;10.60;;;19.10;1.00;;;;;;5074161;28;20875;-79
2023/09/12 06:04:25;;;;;;;11.77;10.57;;;18.90;1.00;;;;;;5063610;28;20449;-78
2023/09/12 06:06:50;;;;;;;14.03;10.80;;;19.00;1.00;;;;;;5054643;28;20412;-78
2023/09/12 06:09:16;;;;;;;11.67;10.57;;;19.10;1.00;;;;;;5036092;28;20469;-79
2023/09/12 06:11:41;;;;;;;11.50;10.40;;;19.00;1.00;;;;;;5053267;28;20903;-78
2023/09/12 06:14:07;;;;;;;12.33;11.23;;;19.10;1.00;;;;;;5053744;28;20388;-79
2023/09/12 06:16:32;;;;;;;11.93;10.73;;;19.10;1.00;;;;;;5065683;28;20396;-78
2023/09/12 06:18:58;;;;;;;11.70;10.60;;;19.20;1.00;;;;;;5054559;28;20396;-78
2023/09/12 06:21:23;;;;;;;11.40;10.20;;;19.20;1.00;;;;;;5066271;28;20403;-78
2023/09/12 06:24:10;;;;;;;11.40;10.30;;;19.30;1.00;;;;;;5070520;28;20909;-78
2023/09/12 06:26:37;;;;;;;11.57;10.57;;;19.30;1.00;;;;;;5054340;28;20408;-78
2023/09/12 06:29:03;;;;;;;11.07;10.18;;;19.40;1.00;;;;;;5072878;28;20842;-78
2023/09/12 06:31:29;;;;;;;11.07;10.03;;;19.40;1.00;;;;;;5072435;28;20471;-78
2023/09/12 06:33:54;;;;;;;11.33;10.23;;;19.50;1.00;;;;;;5040594;28;20393;-78
2023/09/12 06:36:20;;;;;;;10.57;9.50;;;19.60;1.00;;;;;;5052390;28;20412;-78
2023/09/12 06:38:45;;;;;;;11.00;10.10;;;19.60;1.00;;;;;;5070359;28;20398;-78
2023/09/12 06:41:11;;;;;;;11.30;10.30;;;19.60;1.00;;;;;;5071769;28;20394;-79
2023/09/12 06:43:36;;;;;;;12.13;10.15;;;19.80;1.00;;;;;;5037589;28;20416;-78
2023/09/12 06:46:02;;;;;;;10.40;9.60;;;19.80;1.00;;;;;;5072063;28;20518;-78
2023/09/12 06:48:27;;;;;;;11.00;10.00;;;19.80;1.00;;;;;;5071823;28;20376;-78
2023/09/12 06:50:54;;;;;;;11.17;10.10;;;19.90;1.00;;;;;;5053761;28;20407;-77
2023/09/12 06:53:19;;;;;;;10.25;9.35;;;20.00;1.00;;;;;;5071561;28;20771;-77
2023/09/12 06:55:45;;;;;;;11.10;10.00;;;20.10;1.00;;;;;;5062807;28;20401;-78
2023/09/12 06:58:11;;;;;;;11.03;10.03;;;20.30;1.00;;;;;;5034530;28;20884;-78
2023/09/12 07:00:36;;;;;;;14.50;10.68;;;20.60;1.00;;;;;;5050684;28;20386;-78
2023/09/12 07:03:02;;;;;;;11.20;10.03;;;20.80;1.00;;;;;;5061129;28;20390;-78
2023/09/12 07:05:28;;;;;;;11.10;10.10;;;20.90;1.00;;;;;;5064040;28;20411;-78
2023/09/12 07:07:53;;;;;;;10.60;9.80;;;21.00;1.00;;;;;;5081621;28;20419;-78
2023/09/12 07:10:19;;;;;;;11.00;9.90;;;21.20;1.00;;;;;;5064092;28;20379;-78
2023/09/12 07:12:45;;;;;;;11.50;9.90;;;21.40;1.00;;;;;;5056206;28;20755;-79
2023/09/12 07:15:10;;;;;;;10.63;9.73;;;21.40;1.00;;;;;;5057927;28;20393;-79
2023/09/12 07:17:36;;;;;;;10.63;9.70;;;20.70;1.00;;;;;;5052343;28;20431;-79
2023/09/12 07:20:01;;;;;;;11.30;10.20;;;21.50;1.00;;;;;;5052087;28;20377;-79
2023/09/12 07:22:27;;;;;;;9.90;8.90;;;21.60;1.00;;;;;;5051868;28;20382;-78
2023/09/12 07:24:52;;;;;;;9.47;8.63;;;21.60;1.00;;;;;;5055629;28;20457;-78
2023/09/12 07:27:18;;;;;;;11.00;9.90;;;21.50;1.00;;;;;;5053881;28;20434;-78
2023/09/12 07:29:43;;;;;;;10.30;9.50;;;21.60;1.00;;;;;;5054429;28;20494;-78
2023/09/12 07:32:09;;;;;;;10.98;10.07;;;21.70;1.00;;;;;;5054759;28;20387;-79
2023/09/12 07:34:34;;;;;;;10.17;9.37;;;21.70;1.00;;;;;;5071624;28;20383;-78
2023/09/12 07:37:00;;;;;;;10.75;9.65;;;21.70;1.00;;;;;;5051674;28;20388;-79
2023/09/12 07:39:26;;;;;;;10.90;9.73;;;21.60;1.00;;;;;;5051907;28;20382;-79
2023/09/12 07:41:51;;;;;;;11.37;10.27;;;21.10;1.00;;;;;;5051388;28;20469;-79
2023/09/12 07:44:17;;;;;;;10.52;9.63;;;21.40;1.00;;;;;;5040660;28;20391;-79
2023/09/12 07:46:43;;;;;;;10.87;9.90;;;21.40;1.00;;;;;;5053793;28;20400;-79
2023/09/12 07:49:09;;;;;;;11.53;10.07;;;21.30;1.00;;;;;;5071349;28;20395;-79
2023/09/12 07:51:35;;;;;;;10.17;9.27;;;21.40;1.00;;;;;;5052909;28;20875;-78
2023/09/12 07:54:01;;;;;;;10.82;9.85;;;21.50;1.00;;;;;;5049106;28;20405;-78
2023/09/12 07:56:26;;;;;;;10.80;9.80;;;21.60;1.00;;;;;;5048414;28;20394;-78
2023/09/12 07:58:52;;;;;;;10.90;10.00;;;21.70;1.00;;;;;;5073888;28;20470;-78
2023/09/12 08:01:17;;;;;;;11.00;10.00;;;21.80;1.00;;;;;;5057932;28;20387;-78
2023/09/12 08:03:43;;;;;;;10.80;9.80;;;22.00;1.00;;;;;;5058953;28;20552;-78
2023/09/12 08:06:09;;;;;;;10.80;9.90;;;22.00;1.00;;;;;;5045819;28;20405;-79
2023/09/12 08:08:34;;;;;;;11.10;10.10;;;22.20;1.00;;;;;;5071365;28;20388;-79
2023/09/12 08:11:01;;;;;;;11.13;10.02;;;22.30;1.00;;;;;;5073580;28;20371;-78
2023/09/12 08:13:27;;;;;;;11.48;10.27;;;22.20;1.00;;;;;;5073741;28;20371;-79
2023/09/12 08:15:54;;;;;;;10.82;9.82;;;22.20;1.00;;;;;;5075490;28;20801;-79
2023/09/12 08:18:19;;;;;;;11.02;9.95;;;22.40;1.00;;;;;;5060146;28;20414;-79
2023/09/12 08:20:45;;;;;;;11.97;10.80;;;22.40;1.00;;;;;;5038747;28;20907;-79
2023/09/12 08:23:10;;;;;;;11.38;10.27;;;22.40;1.00;;;;;;5056087;28;20392;-79
2023/09/12 08:25:36;;;;;;;11.20;10.20;;;22.40;1.00;;;;;;5037417;28;20405;-78
2023/09/12 08:28:01;;;;;;;11.30;10.30;;;22.50;1.00;;;;;;5055381;28;20408;-79
2023/09/12 08:30:30;;;;;;;11.43;10.43;;;22.70;1.00;;;;;;5037556;28;20409;-79
2023/09/12 08:32:55;;;;;;;11.20;10.20;;;22.80;1.00;;;;;;5044767;28;20395;-79
2023/09/12 08:35:21;;;;;;;11.03;9.93;;;22.90;1.00;;;;;;5075381;28;21043;-78
2023/09/12 08:37:47;;;;;;;10.88;9.88;;;23.00;1.00;;;;;;5057458;28;20434;-79
2023/09/12 08:40:13;;;;;;;10.70;9.60;;;23.20;1.00;;;;;;5064123;28;20393;-78
2023/09/12 08:42:44;;;;;;;11.05;10.13;;;23.30;1.00;;;;;;5040935;28;20391;-78
2023/09/12 08:45:15;;;;;;;10.60;9.70;;;23.60;1.00;;;;;;5074910;28;20376;-78
2023/09/12 08:47:42;;;;;;;10.10;9.20;;;23.60;1.00;;;;;;5074627;28;20376;-79
2023/09/12 08:50:16;;;;;;;9.80;9.00;;;23.70;1.00;;;;;;5074639;28;20459;-78
2023/09/12 08:52:42;;;;;;;10.13;9.20;;;23.80;1.00;;;;;;5071139;28;20481;-79
2023/09/12 08:55:09;;;;;;;10.25;9.45;;;23.90;1.00;;;;;;5061781;28;21014;-79
2023/09/12 08:57:38;;;;;;;9.07;8.20;;;24.10;1.00;;;;;;5075016;28;20450;-79
2023/09/12 09:00:06;;;;;;;8.82;8.13;;;24.60;1.00;;;;;;5056320;28;20471;-78
2023/09/12 09:02:33;;;;;;;8.57;7.87;;;25.00;1.00;;;;;;5074291;28;20437;-78
2023/09/12 09:05:00;;;;;;;9.80;8.90;;;25.40;1.00;;;;;;5070045;28;20397;-78
2023/09/12 09:07:28;;;;;;;7.90;7.30;;;25.40;1.00;;;;;;5036544;28;20427;-79
2023/09/12 09:09:55;;;;;;;8.15;7.40;;;25.60;1.00;;;;;;5054443;28;20389;-79
2023/09/12 09:12:21;;;;;;;8.70;8.00;;;25.50;1.00;;;;;;5037650;28;20377;-79
2023/09/12 09:14:47;;;;;;;8.80;7.90;;;26.00;1.00;;;;;;5074668;28;20434;-79
2023/09/12 09:17:13;;;;;;;8.43;7.73;;;26.10;1.00;;;;;;5074620;28;20384;-79
2023/09/12 09:19:44;;;;;;;8.70;7.90;;;25.90;1.00;;;;;;5074790;28;20728;-79
2023/09/12 09:22:10;;;;;;;7.50;6.80;;;26.20;1.00;;;;;;5036568;28;20385;-79
2023/09/12 09:24:35;;;;;;;7.57;6.87;;;26.30;1.00;;;;;;5075404;28;20901;-78
2023/09/12 09:27:01;;;;;;;7.55;6.85;;;26.50;1.00;;;;;;5069884;28;20401;-78
2023/09/12 09:29:32;;;;;;;7.40;6.80;;;26.50;1.00;;;;;;5054415;28;20389;-78
2023/09/12 09:32:00;;;;;;;7.20;6.50;;;26.50;1.00;;;;;;5036520;28;20491;-78
2023/09/12 09:34:29;;;;;;;6.90;6.25;;;26.40;1.00;;;;;;5054868;28;20461;-78
2023/09/12 09:36:59;;;;;;;6.57;6.00;;;26.50;1.00;;;;;;5055854;28;20447;-78
2023/09/12 09:39:26;;;;;;;8.48;6.32;;;26.50;1.00;;;;;;5073941;28;20390;-78
2023/09/12 09:41:54;;;;;;;7.25;5.90;;;26.90;1.00;;;;;;5054286;28;20385;-78
2023/09/12 09:44:22;;;;;;;6.95;6.25;;;26.80;1.00;;;;;;5035912;28;20467;-78
2023/09/12 09:46:54;;;;;;;6.80;6.10;;;26.70;1.00;;;;;;5056347;28;20409;-78
2023/09/12 09:49:21;;;;;;;6.75;6.15;;;26.70;1.00;;;;;;5041400;28;20388;-77
2023/09/12 09:51:47;;;;;;;6.47;5.87;;;26.90;1.00;;;;;;5060365;28;20387;-78
2023/09/12 09:54:13;;;;;;;6.43;5.83;;;26.80;1.00;;;;;;5081395;28;21144;-77
2023/09/12 09:56:49;;;;;;;6.38;5.75;;;26.80;1.00;;;;;;5078048;28;20424;-77
2023/09/12 09:59:17;;;;;;;6.93;5.75;;;26.90;1.00;;;;;;5042961;28;20390;-78
2023/09/12 10:01:44;;;;;;;6.55;5.95;;;27.00;1.00;;;;;;5061846;28;20450;-78
2023/09/12 10:04:10;;;;;;;6.20;5.70;;;27.00;1.00;;;;;;5043929;28;20421;-78
2023/09/12 10:06:37;;;;;;;5.90;5.40;;;27.00;1.00;;;;;;5045201;28;20401;-78
2023/09/12 10:09:09;;;;;;;6.97;5.20;;;27.00;1.00;;;;;;5072241;28;20400;-77
2023/09/12 10:11:35;;;;;;;6.80;5.60;;;27.00;1.00;;;;;;5061456;28;20389;-78
2023/09/12 10:14:04;;;;;;;7.28;6.05;;;27.20;1.00;;;;;;5062006;28;20515;-78
2023/09/12 10:16:31;;;;;;;6.60;6.10;;;27.50;1.00;;;;;;5059393;28;20385;-78
2023/09/12 10:19:17;;;;;;;6.30;5.78;;;27.30;1.00;;;;;;5087093;28;20388;-77
2023/09/12 10:22:02;;;;;;;6.30;5.70;;;27.50;1.00;;;;;;5073495;28;20904;-78
2023/09/12 10:24:29;;;;;;;6.20;5.60;;;27.70;1.00;;;;;;5081966;28;20451;-78
2023/09/12 10:26:55;;;;;;;6.10;5.50;;;27.70;1.00;;;;;;5080136;28;20443;-78
2023/09/12 10:29:22;;;;;;;5.93;5.32;;;27.90;1.00;;;;;;5080895;28;20376;-78
2023/09/12 10:31:48;;;;;;;5.90;5.30;;;28.30;1.00;;;;;;5078003;28;20392;-79
2023/09/12 10:34:15;;;;;;;5.22;4.82;;;28.10;1.00;;;;;;5036082;28;20382;-78
2023/09/12 10:36:42;;;;;;;5.45;5.05;;;28.20;1.00;;;;;;5054293;28;20439;-79
2023/09/12 10:39:10;;;;;;;6.20;5.70;;;28.50;1.00;;;;;;5073789;28;20391;-79
2023/09/12 10:41:38;;;;;;;5.60;5.20;;;28.30;1.00;;;;;;5042393;28;20907;-79
2023/09/12 10:44:09;;;;;;;5.97;5.40;;;28.40;1.00;;;;;;5053906;28;20796;-78
2023/09/12 10:46:39;;;;;;;5.20;4.70;;;28.40;1.00;;;;;;5053246;28;20451;-79
2023/09/12 10:49:10;;;;;;;5.80;5.30;;;28.60;1.00;;;;;;5052844;28;20469;-78
2023/09/12 10:51:40;;;;;;;5.20;4.80;;;28.70;1.00;;;;;;5064729;28;20391;-79
2023/09/12 10:54:08;;;;;;;5.60;5.10;;;28.60;1.00;;;;;;5073924;28;20379;-79
2023/09/12 10:56:34;;;;;;;10.90;5.30;;;29.00;1.00;;;;;;5055172;28;20425;-79
2023/09/12 10:59:09;;;;;;;5.28;4.80;;;28.90;1.00;;;;;;5073022;28;20470;-79
2023/09/12 11:01:36;;;;;;;5.60;5.10;;;29.00;1.00;;;;;;5054142;28;20740;-78
2023/09/12 11:04:28;;;;;;;5.60;5.10;;;28.90;1.00;;;;;;5062087;28;20398;-78
2023/09/12 11:06:56;;;;;;;5.33;4.93;;;29.10;1.00;;;;;;5043653;28;20504;-79
2023/09/12 11:09:26;;;;;;;5.78;5.28;;;29.30;1.00;;;;;;5053345;28;20481;-79
2023/09/12 11:11:55;;;;;;;5.50;5.10;;;29.50;1.00;;;;;;5052915;28;20392;-79
2023/09/12 11:14:21;;;;;;;6.23;5.63;;;29.50;1.00;;;;;;5048123;28;20421;-79
2023/09/12 11:17:23;;;;;;;6.50;4.88;;;29.70;1.00;;;;;;5074182;28;20417;-78
2023/09/12 11:19:53;;;;;;;5.28;4.88;;;29.90;1.00;;;;;;4975885;28;20459;-79
2023/09/12 11:22:27;;;;;;;5.60;5.10;;;30.10;1.00;;;;;;5039070;28;20398;-79
2023/09/12 11:24:55;;;;;;;5.50;5.00;;;30.20;1.00;;;;;;5034523;28;20385;-78
2023/09/12 11:27:22;;;;;;;5.90;5.30;;;30.40;1.00;;;;;;5033949;28;20405;-78
2023/09/12 11:29:47;;;;;;;5.18;4.63;;;31.00;1.00;;;;;;5052931;28;20976;-77
2023/09/12 11:32:26;;;;;;;6.23;5.60;;;31.40;1.00;;;;;;5090371;28;20402;-78
2023/09/12 11:34:52;;;;;;;5.43;4.93;;;31.90;1.00;;;;;;5059991;28;20390;-78
2023/09/12 11:37:29;;;;;;;5.43;4.93;;;32.30;1.00;;;;;;5082153;28;20412;-79
2023/09/12 11:39:57;;;;;;;5.82;5.32;;;32.90;1.00;;;;;;5076963;28;20370;-78
2023/09/12 11:42:25;;;;;;;5.60;5.20;;;32.60;1.00;;;;;;5079489;28;20416;-77
2023/09/12 11:44:51;;;;;;;5.25;4.85;;;32.50;1.00;;;;;;5059213;28;20438;-78
2023/09/12 11:47:17;;;;;;;5.55;5.05;;;32.60;1.00;;;;;;5058505;28;20495;-78
2023/09/12 11:49:43;;;;;;;5.60;5.10;;;32.10;1.00;;;;;;5065674;28;20523;-79
2023/09/12 11:52:14;;;;;;;5.45;4.95;;;32.20;1.00;;;;;;5056440;28;20902;-78
2023/09/12 11:54:43;;;;;;;5.80;5.30;;;32.20;1.00;;;;;;5060147;28;20810;-79
2023/09/12 11:57:11;;;;;;;5.70;5.30;;;32.40;1.00;;;;;;5076726;28;20384;-77
2023/09/12 11:59:39;;;;;;;5.40;5.00;;;32.20;1.00;;;;;;5060523;28;20838;-78
2023/09/12 12:02:08;;;;;;;5.63;5.22;;;32.30;1.00;;;;;;5045554;28;20445;-78
2023/09/12 12:04:34;;;;;;;5.55;5.05;;;32.40;1.00;;;;;;5076525;28;20720;-78
2023/09/12 12:07:01;;;;;;;6.00;5.50;;;31.70;1.00;;;;;;5058079;28;20980;-78
2023/09/12 12:09:27;;;;;;;5.70;5.20;;;31.80;1.00;;;;;;5058334;28;20875;-77
2023/09/12 12:11:52;;;;;;;6.20;5.60;;;31.90;1.00;;;;;;5074150;28;20371;-78
2023/09/12 12:14:19;;;;;;;6.23;5.63;;;32.10;1.00;;;;;;5065887;28;20391;-78
2023/09/12 12:16:46;;;;;;;5.70;5.20;;;31.80;1.00;;;;;;5075315;28;20387;-78
2023/09/12 12:19:12;;;;;;;5.70;5.30;;;31.90;1.00;;;;;;5057583;28;20395;-79
2023/09/12 12:21:42;;;;;;;6.45;5.60;;;32.00;1.00;;;;;;5039716;28;20432;-78
2023/09/12 12:24:10;;;;;;;5.50;5.10;;;32.20;1.00;;;;;;5037972;28;20393;-78
2023/09/12 12:26:36;;;;;;;6.60;6.00;;;31.90;1.00;;;;;;5056156;28;20432;-77
2023/09/12 12:29:04;;;;;;;6.15;5.55;;;31.60;1.00;;;;;;5049237;28;20391;-78
2023/09/12 12:31:30;;;;;;;6.00;5.50;;;31.80;1.00;;;;;;5075755;28;20867;-78
2023/09/12 12:33:57;;;;;;;6.65;6.03;;;31.10;1.00;;;;;;5076762;28;20384;-78
2023/09/12 12:36:23;;;;;;;6.50;5.90;;;31.40;1.00;;;;;;5071880;28;20397;-78
2023/09/12 12:38:49;;;;;;;6.93;6.32;;;31.70;1.00;;;;;;5036851;28;20479;-78
2023/09/12 12:41:29;;;;;;;6.75;6.15;;;31.50;1.00;;;;;;5054726;28;20477;-78
2023/09/12 12:44:00;;;;;;;6.32;5.72;;;31.60;1.00;;;;;;5054639;28;20442;-78
2023/09/12 12:46:27;;;;;;;6.50;6.00;;;31.60;1.00;;;;;;5068228;28;20502;-78
2023/09/12 12:48:53;;;;;;;6.30;5.80;;;31.80;1.00;;;;;;5076193;28;20388;-78